MSC Vigo — DITL2 — position and weather

sailwx.info

Track history (hours):
 
Tides and Currents Weather Stations Pressure Air Temp Water Temp Dewpoint Dewpoint Depression Visibility Wind Speed Wind Dir Waves Ship Positions

MSC Vigo

Last reported at 2018-Apr-15 18:00 UTC. Time now 2018-Apr-19 23:25 UTC.
Position N 21°12' E 038°42'.

Length 270 m; draft 11.5 m.

Type: Ship (hazmat cat A). MMSI: 218853000.

Wind from 330 at 4 knots

Barometer 1008.2 mb
Air temperature 27.0 ° C
Visibility: greater than 10.8 NM
Dewpoint 24.3 ° C
Water temperature 29.0 ° C

Date/timePositionNaut miles runAvg speedWind from/ knotsBaromVisibWave heightAir tempDewpointWater temp
2018-Apr-15 18:00N 21°12' E 038°42'   330 / 41008.210.8 27.024.329.0
2018-Apr-07 20:13N 36°44' E 034°39'10410.8
2018-Apr-07 10:34N 35°49' E 032°49'617.9
2018-Apr-07 10:15N 35°49' E 032°41'417.9
2018-Apr-07 10:00N 35°49' E 032°36'917.8
2018-Apr-07 09:30N 35°49' E 032°25'917.7
2018-Apr-07 09:00N 35°49' E 032°14'917.8
2018-Apr-07 08:30N 35°49' E 032°03'917.9
2018-Apr-07 08:00N 35°49' E 031°52'917.8
2018-Apr-07 07:30N 35°49' E 031°41'917.9
2018-Apr-07 07:00N 35°49' E 031°30'918.2
2018-Apr-07 06:30N 35°49' E 031°19'918.2
2018-Apr-07 05:59N 35°49' E 031°07'918.1
2018-Apr-07 05:30N 35°49' E 030°57'1119.1
2018-Apr-07 04:55N 35°49' E 030°43'920.7
2018-Apr-07 04:30N 35°48' E 030°32'24218.7
2018-Apr-06 15:34N 37°22' E 025°55'120.6
2018-Apr-06 15:30N 37°23' E 025°54'1019.6
2018-Apr-06 15:00N 37°33' E 025°50'  
Track history (hours):
 
Tides and Currents Weather Stations Pressure Air Temp Water Temp Dewpoint Dewpoint Depression Visibility Wind Speed Wind Dir Waves Ship Positions

MSC Vigo

Last reported at 2018-Apr-15 18:00 UTC. Time now 2018-Apr-19 23:25 UTC.
Position N 21°12' E 038°42'.

Length 270 m; draft 11.5 m.

Type: Ship (hazmat cat A). MMSI: 218853000.

Wind from 330 at 4 knots

Barometer 1008.2 mb
Air temperature 27.0 ° C
Visibility: greater than 10.8 NM
Dewpoint 24.3 ° C
Water temperature 29.0 ° C

Date/timePositionNaut miles runAvg speedWind from/ knotsBaromVisibWave heightAir tempDewpointWater temp
2018-Apr-15 18:00N 21°12' E 038°42'   330 / 41008.210.8 27.024.329.0
2018-Apr-07 20:13N 36°44' E 034°39'10410.8
2018-Apr-07 10:34N 35°49' E 032°49'617.9
2018-Apr-07 10:15N 35°49' E 032°41'417.9
2018-Apr-07 10:00N 35°49' E 032°36'917.8
2018-Apr-07 09:30N 35°49' E 032°25'917.7
2018-Apr-07 09:00N 35°49' E 032°14'917.8
2018-Apr-07 08:30N 35°49' E 032°03'917.9
2018-Apr-07 08:00N 35°49' E 031°52'917.8
2018-Apr-07 07:30N 35°49' E 031°41'917.9
2018-Apr-07 07:00N 35°49' E 031°30'918.2
2018-Apr-07 06:30N 35°49' E 031°19'918.2
2018-Apr-07 05:59N 35°49' E 031°07'918.1
2018-Apr-07 05:30N 35°49' E 030°57'1119.1
2018-Apr-07 04:55N 35°49' E 030°43'920.7
2018-Apr-07 04:30N 35°48' E 030°32'24218.7
2018-Apr-06 15:34N 37°22' E 025°55'120.6
2018-Apr-06 15:30N 37°23' E 025°54'1019.6
2018-Apr-06 15:00N 37°33' E 025°50'  

Dump ship's entire track history